Cornion — CQMH — position and weather

sailwx.info

Track history (hours):
 
Tides and Currents Weather Stations Pressure Air Temp Water Temp Dewpoint Dewpoint Depression Visibility Wind Speed Wind Dir Waves Ship Positions

Cornion

Last reported at 2016-Jul-26 08:20 UTC. Time now 2016-Jul-26 12:15 UTC.
Position N 36°33' W 000°41'.

Length 90 m; draft 5.8 m.

Type: Cargo ship. MMSI: 255803370.

Date/timePositionNaut miles runAvg speedWind from/ knotsBaromVisibWave heightAir tempDewpointWater temp
2016-Jul-26 08:20N 36°33' W 000°41'22010.4
2016-Jul-25 11:09N 35°60' W 005°11'610.9
2016-Jul-25 10:34N 35°59' W 005°18'234 8.6
2016-Jul-24 07:30N 37°32' W 009°46'1010.2
2016-Jul-24 06:32N 37°42' W 009°48'1010.2
2016-Jul-24 05:33N 37°51' W 009°51'1010.1
2016-Jul-24 04:33N 38°01' W 009°54'1010.2
2016-Jul-24 03:33N 38°11' W 009°57'1110.6
2016-Jul-24 02:34N 38°21' W 010°00'1110.7
2016-Jul-24 01:34N 38°32' W 010°03'1110.6
2016-Jul-24 00:32N 38°42' W 010°06'353 8.0
2016-Jul-22 04:33N 43°44' W 006°02'1110.6
2016-Jul-22 03:33N 43°43' W 005°48'1310.1
2016-Jul-22 02:19N 43°42' W 005°31'  
Track history (hours):
 
Tides and Currents Weather Stations Pressure Air Temp Water Temp Dewpoint Dewpoint Depression Visibility Wind Speed Wind Dir Waves Ship Positions

Cornion

Last reported at 2016-Jul-26 08:20 UTC. Time now 2016-Jul-26 12:15 UTC.
Position N 36°33' W 000°41'.

Length 90 m; draft 5.8 m.

Type: Cargo ship. MMSI: 255803370.

Date/timePositionNaut miles runAvg speedWind from/ knotsBaromVisibWave heightAir tempDewpointWater temp
2016-Jul-26 08:20N 36°33' W 000°41'22010.4
2016-Jul-25 11:09N 35°60' W 005°11'610.9
2016-Jul-25 10:34N 35°59' W 005°18'234 8.6
2016-Jul-24 07:30N 37°32' W 009°46'1010.2
2016-Jul-24 06:32N 37°42' W 009°48'1010.2
2016-Jul-24 05:33N 37°51' W 009°51'1010.1
2016-Jul-24 04:33N 38°01' W 009°54'1010.2
2016-Jul-24 03:33N 38°11' W 009°57'1110.6
2016-Jul-24 02:34N 38°21' W 010°00'1110.7
2016-Jul-24 01:34N 38°32' W 010°03'1110.6
2016-Jul-24 00:32N 38°42' W 010°06'353 8.0
2016-Jul-22 04:33N 43°44' W 006°02'1110.6
2016-Jul-22 03:33N 43°43' W 005°48'1310.1
2016-Jul-22 02:19N 43°42' W 005°31'  

Dump ship's entire track history